createdAt,value
2023-01-26T00:01:30.115Z,101.73
2023-01-26T00:03:57.990Z,111.80
2023-01-26T00:06:26.663Z,99.97
2023-01-26T00:08:56.731Z,108.00
2023-01-26T00:11:29.400Z,91.87
2023-01-26T00:13:58.536Z,103.07
2023-01-26T00:16:26.492Z,102.23
2023-01-26T00:18:54.086Z,85.23
2023-01-26T00:21:23.587Z,94.53
2023-01-26T00:23:51.903Z,94.53
2023-01-26T00:26:21.684Z,92.33
2023-01-26T00:28:49.820Z,102.63
2023-01-26T00:31:27.526Z,101.23
2023-01-26T00:33:56.584Z,99.07
2023-01-26T00:36:24.083Z,96.00
2023-01-26T00:38:51.261Z,104.70
2023-01-26T00:41:36.647Z,93.10
2023-01-26T00:44:04.114Z,95.83
2023-01-26T00:46:31.770Z,102.37
2023-01-26T00:49:00.882Z,105.90
2023-01-26T00:51:28.372Z,114.97
2023-01-26T00:53:55.499Z,88.53
2023-01-26T00:56:22.608Z,99.33
2023-01-26T00:58:49.560Z,101.03
2023-01-26T01:01:16.575Z,98.37
2023-01-26T01:03:43.905Z,99.00
2023-01-26T01:06:10.748Z,91.87
2023-01-26T01:08:37.690Z,97.77
2023-01-26T01:11:06.361Z,108.67
2023-01-26T01:13:33.270Z,96.47
2023-01-26T01:16:00.368Z,87.03
2023-01-26T01:18:27.356Z,104.00
2023-01-26T01:20:54.227Z,76.70
2023-01-26T01:23:21.141Z,88.77
2023-01-26T01:25:56.241Z,88.83
2023-01-26T01:28:23.460Z,102.63
2023-01-26T01:30:50.452Z,86.43
2023-01-26T01:33:17.779Z,111.03
2023-01-26T01:35:44.796Z,89.60
2023-01-26T01:38:11.689Z,97.87
2023-01-26T01:40:44.561Z,95.07
2023-01-26T01:43:12.690Z,96.30
2023-01-26T01:45:47.157Z,96.40
2023-01-26T01:48:20.827Z,86.13
2023-01-26T01:50:50.159Z,93.90
2023-01-26T01:53:24.659Z,85.87
2023-01-26T01:56:01.069Z,101.27
2023-01-26T01:58:33.308Z,96.97
2023-01-26T02:01:00.265Z,90.03
2023-01-26T02:03:30.150Z,102.27
2023-01-26T02:06:30.409Z,114.47
2023-01-26T02:08:58.199Z,105.23
2023-01-26T02:11:39.681Z,93.03
2023-01-26T02:14:10.380Z,93.13
2023-01-26T02:16:40.159Z,93.80
2023-01-26T02:19:17.529Z,90.87
2023-01-26T02:21:45.876Z,89.23
2023-01-26T02:24:31.370Z,87.83
2023-01-26T02:26:58.774Z,103.03
2023-01-26T02:29:25.762Z,95.53
2023-01-26T02:31:53.721Z,87.83
2023-01-26T02:34:21.027Z,100.50
2023-01-26T02:36:57.781Z,97.80
2023-01-26T02:39:47.484Z,107.43
2023-01-26T02:42:32.861Z,105.70
2023-01-26T02:45:00.167Z,91.40
2023-01-26T02:47:27.001Z,85.40
2023-01-26T02:49:53.822Z,89.90
2023-01-26T02:52:23.554Z,96.07
2023-01-26T02:55:08.927Z,105.43
2023-01-26T02:57:36.442Z,92.63
2023-01-26T03:00:13.571Z,98.60
2023-01-26T03:02:42.377Z,89.83
2023-01-26T03:05:09.694Z,92.80
2023-01-26T03:07:36.749Z,99.23
2023-01-26T03:10:04.735Z,82.03
2023-01-26T03:12:31.823Z,85.23
2023-01-26T03:15:17.231Z,86.60
2023-01-26T03:17:44.514Z,81.77
2023-01-26T03:20:30.411Z,85.13
2023-01-26T03:23:16.362Z,82.67
2023-01-26T03:26:01.676Z,81.67
2023-01-26T03:28:28.550Z,71.27
2023-01-26T03:30:58.030Z,79.20
2023-01-26T03:33:25.289Z,88.73
2023-01-26T03:35:54.444Z,89.30
2023-01-26T03:38:21.826Z,81.27
2023-01-26T03:41:07.010Z,76.03
2023-01-26T03:43:52.602Z,77.43
2023-01-26T03:46:38.075Z,79.87
2023-01-26T03:49:23.505Z,81.43
2023-01-26T03:52:08.988Z,67.47
2023-01-26T03:54:54.951Z,82.00
2023-01-26T03:57:21.765Z,79.53
2023-01-26T03:59:48.648Z,80.47
2023-01-26T04:02:34.279Z,79.40
2023-01-26T04:05:20.114Z,77.13
2023-01-26T04:08:05.491Z,72.63
2023-01-26T04:10:32.998Z,88.33
2023-01-26T04:13:18.769Z,68.77
2023-01-26T04:16:06.781Z,69.30
2023-01-26T04:18:52.651Z,77.67
2023-01-26T04:21:29.213Z,67.10
2023-01-26T04:23:58.331Z,75.67
2023-01-26T04:26:27.496Z,62.70
2023-01-26T04:28:54.104Z,81.87
2023-01-26T04:31:20.704Z,82.57
2023-01-26T04:33:47.924Z,73.87
2023-01-26T04:36:14.883Z,70.50
2023-01-26T04:38:41.514Z,74.97
2023-01-26T04:41:08.647Z,77.77
2023-01-26T04:43:35.343Z,71.90
2023-01-26T04:46:05.954Z,79.80
2023-01-26T04:48:33.967Z,71.67
2023-01-26T04:51:06.944Z,71.83
2023-01-26T04:53:34.356Z,84.40
2023-01-26T04:56:01.203Z,84.87
2023-01-26T04:58:27.887Z,82.87
2023-01-26T05:00:56.959Z,66.50
2023-01-26T05:03:25.238Z,73.80
2023-01-26T05:05:53.999Z,74.77
2023-01-26T05:08:22.270Z,77.33
2023-01-26T05:10:49.504Z,67.70
2023-01-26T05:13:18.843Z,77.30
2023-01-26T05:15:46.254Z,69.63
2023-01-26T05:18:13.357Z,67.40
2023-01-26T05:20:40.254Z,64.63
2023-01-26T05:23:06.888Z,72.53
2023-01-26T05:25:33.711Z,67.73
2023-01-26T05:28:00.481Z,60.43
2023-01-26T05:30:27.272Z,59.83
2023-01-26T05:32:53.989Z,58.13
2023-01-26T05:35:20.602Z,63.37
2023-01-26T05:37:47.222Z,63.47
2023-01-26T05:40:14.101Z,60.53
2023-01-26T05:42:43.850Z,66.20
2023-01-26T05:45:10.633Z,73.07
2023-01-26T05:47:37.720Z,61.50
2023-01-26T05:50:05.644Z,64.03
2023-01-26T05:52:32.538Z,69.30
2023-01-26T05:54:59.215Z,57.37
2023-01-26T05:57:25.890Z,60.73
2023-01-26T05:59:53.064Z,67.47
2023-01-26T06:02:20.268Z,59.43
2023-01-26T06:04:47.030Z,56.03
2023-01-26T06:07:14.461Z,67.13
2023-01-26T06:09:42.051Z,61.30
2023-01-26T06:12:20.463Z,61.87
2023-01-26T06:14:47.714Z,56.83
2023-01-26T06:17:16.951Z,57.30
2023-01-26T06:19:44.217Z,51.40
2023-01-26T06:22:12.716Z,58.33
2023-01-26T06:24:39.810Z,61.37
2023-01-26T06:27:14.103Z,56.43
2023-01-26T06:29:41.857Z,60.80
2023-01-26T06:32:14.227Z,54.33
2023-01-26T06:34:41.421Z,60.10
2023-01-26T06:37:08.616Z,56.57
2023-01-26T06:39:37.102Z,58.87
2023-01-26T06:42:06.718Z,58.27
2023-01-26T06:44:36.028Z,56.63
2023-01-26T06:47:02.748Z,53.20
2023-01-26T06:49:29.419Z,55.73
2023-01-26T06:51:59.570Z,55.40
2023-01-26T06:54:26.261Z,54.23
2023-01-26T06:56:53.038Z,58.90
2023-01-26T06:59:20.112Z,61.63
2023-01-26T07:01:48.797Z,47.40
2023-01-26T07:04:16.568Z,52.07
2023-01-26T07:06:43.653Z,53.27
2023-01-26T07:09:11.347Z,48.23
2023-01-26T07:11:38.083Z,42.33
2023-01-26T07:14:04.789Z,46.80
2023-01-26T07:16:33.886Z,42.20
2023-01-26T07:19:00.799Z,44.97
2023-01-26T07:21:27.554Z,43.77
2023-01-26T07:23:56.321Z,50.87
2023-01-26T07:26:23.235Z,48.10
2023-01-26T07:28:49.868Z,55.73
2023-01-26T07:31:17.031Z,46.50
2023-01-26T07:33:43.807Z,50.90
2023-01-26T07:36:11.083Z,44.27
2023-01-26T07:38:38.380Z,46.93
2023-01-26T07:41:07.318Z,49.07
2023-01-26T07:43:35.872Z,44.63
2023-01-26T07:46:03.018Z,44.67
2023-01-26T07:48:30.080Z,40.60
2023-01-26T07:51:00.878Z,46.33
2023-01-26T07:53:29.328Z,46.30
2023-01-26T07:56:13.972Z,54.37
2023-01-26T07:58:41.067Z,42.53
2023-01-26T08:01:13.193Z,51.23
2023-01-26T08:03:40.911Z,43.47
2023-01-26T08:06:11.521Z,49.77
2023-01-26T08:08:41.830Z,47.83
2023-01-26T08:11:10.281Z,43.23
2023-01-26T08:13:37.271Z,43.97
2023-01-26T08:16:11.860Z,49.30
2023-01-26T08:18:39.913Z,40.50
2023-01-26T08:21:06.966Z,44.17
2023-01-26T08:23:33.927Z,45.70
2023-01-26T08:26:02.229Z,47.00
2023-01-26T08:28:30.066Z,42.47
2023-01-26T08:30:57.211Z,44.80
2023-01-26T08:33:24.242Z,40.10
2023-01-26T08:35:51.698Z,48.20
2023-01-26T08:38:18.620Z,40.73
2023-01-26T08:40:50.811Z,39.07
2023-01-26T08:43:17.793Z,33.63
2023-01-26T08:45:47.545Z,33.33
2023-01-26T08:48:14.303Z,31.03
2023-01-26T08:50:41.232Z,30.00
2023-01-26T08:53:08.086Z,30.67
2023-01-26T08:55:35.447Z,29.33
2023-01-26T08:58:02.553Z,28.73
2023-01-26T09:00:30.306Z,27.77
2023-01-26T09:03:01.631Z,27.20
2023-01-26T09:05:32.908Z,30.70
2023-01-26T09:07:59.539Z,22.47
2023-01-26T09:10:26.448Z,28.97
2023-01-26T09:12:53.297Z,28.27
2023-01-26T09:15:20.373Z,25.13
2023-01-26T09:17:50.468Z,28.57
2023-01-26T09:20:18.579Z,27.13
2023-01-26T09:22:47.514Z,25.63
2023-01-26T09:25:15.315Z,23.13
2023-01-26T09:27:42.029Z,21.83
2023-01-26T09:30:09.996Z,25.40
2023-01-26T09:32:36.706Z,29.70
2023-01-26T09:35:03.700Z,30.10
2023-01-26T09:37:30.433Z,26.43
2023-01-26T09:39:57.075Z,20.23
2023-01-26T09:42:57.018Z,26.87
2023-01-26T09:45:41.035Z,25.60
2023-01-26T09:48:35.691Z,24.37
2023-01-26T09:51:09.932Z,23.60
2023-01-26T09:53:39.645Z,26.60
2023-01-26T09:56:09.208Z,24.07
2023-01-26T09:58:40.387Z,24.23
2023-01-26T10:01:34.785Z,29.77
2023-01-26T10:04:10.929Z,19.73
2023-01-26T10:06:39.250Z,23.70
2023-01-26T10:09:19.997Z,29.13
2023-01-26T10:11:53.017Z,28.60
2023-01-26T10:14:21.741Z,32.50
2023-01-26T10:16:51.737Z,26.57
2023-01-26T10:19:37.397Z,27.50
2023-01-26T10:22:11.590Z,35.10
2023-01-26T10:24:39.574Z,30.33
2023-01-26T10:27:15.841Z,26.53
2023-01-26T10:29:42.700Z,30.77
2023-01-26T10:32:18.264Z,26.23
2023-01-26T10:34:47.657Z,30.90
2023-01-26T10:37:24.199Z,32.07
2023-01-26T10:40:07.348Z,30.50
2023-01-26T10:42:35.770Z,37.80
2023-01-26T10:45:24.167Z,26.47
2023-01-26T10:48:09.567Z,29.53
2023-01-26T10:50:36.276Z,30.13
2023-01-26T10:53:05.067Z,26.90
2023-01-26T10:55:34.008Z,36.17
2023-01-26T10:58:01.817Z,29.40
2023-01-26T11:00:31.491Z,31.17
2023-01-26T11:03:17.827Z,33.40
2023-01-26T11:05:47.942Z,28.40
2023-01-26T11:08:37.052Z,32.63
2023-01-26T11:11:07.857Z,30.67
2023-01-26T11:13:34.555Z,32.10
2023-01-26T11:16:20.251Z,29.20
2023-01-26T11:18:53.843Z,33.20
2023-01-26T11:21:32.006Z,31.33
2023-01-26T11:24:09.664Z,27.50
2023-01-26T11:27:14.070Z,31.57
2023-01-26T11:29:55.798Z,29.53
2023-01-26T11:33:18.308Z,33.43
2023-01-26T11:35:54.405Z,34.60
2023-01-26T11:38:44.285Z,28.37
2023-01-26T11:41:20.117Z,29.90
2023-01-26T11:43:55.696Z,35.53
2023-01-26T11:46:37.317Z,29.00
2023-01-26T11:49:27.443Z,30.43
2023-01-26T11:52:12.320Z,28.03
2023-01-26T11:55:14.239Z,31.90
2023-01-26T11:57:49.066Z,35.00
2023-01-26T12:00:30.080Z,29.50
2023-01-26T12:03:06.272Z,27.97
2023-01-26T12:05:45.970Z,27.40
2023-01-26T12:08:23.328Z,34.43
2023-01-26T12:11:22.242Z,29.07
2023-01-26T12:14:23.275Z,26.90
2023-01-26T12:17:15.602Z,25.40
2023-01-26T12:19:53.307Z,33.80
2023-01-26T12:22:26.766Z,32.03
2023-01-26T12:25:18.576Z,30.80
2023-01-26T12:27:58.928Z,34.67
2023-01-26T12:30:58.658Z,37.17
2023-01-26T12:33:26.073Z,41.43
2023-01-26T12:36:16.775Z,44.00
2023-01-26T12:38:59.889Z,44.90
2023-01-26T12:41:41.747Z,40.60
2023-01-26T12:44:33.407Z,43.50
2023-01-26T12:47:25.149Z,48.37
2023-01-26T12:49:54.797Z,61.80
2023-01-26T12:52:34.636Z,52.40
2023-01-26T12:55:22.842Z,50.17
2023-01-26T12:58:01.145Z,117.43
2023-01-26T13:00:37.010Z,43.20
2023-01-26T13:03:07.058Z,46.53
2023-01-26T13:05:36.516Z,52.87
2023-01-26T13:08:31.190Z,47.97
2023-01-26T13:10:59.911Z,53.07
2023-01-26T13:13:30.098Z,55.97
2023-01-26T13:16:15.726Z,61.90
2023-01-26T13:18:57.277Z,43.43
2023-01-26T13:21:39.326Z,71.03
2023-01-26T13:24:18.395Z,54.07
2023-01-26T13:26:46.940Z,56.40
2023-01-26T13:29:25.790Z,54.77
2023-01-26T13:31:55.053Z,56.50
2023-01-26T13:34:36.334Z,58.50
2023-01-26T13:37:31.196Z,60.83
2023-01-26T13:40:31.449Z,47.23
2023-01-26T13:43:27.722Z,45.07
2023-01-26T13:46:09.960Z,56.10
2023-01-26T13:48:39.605Z,38.73
2023-01-26T13:51:09.730Z,42.07
2023-01-26T13:53:38.888Z,43.50
2023-01-26T13:56:20.406Z,53.13
2023-01-26T13:58:47.296Z,43.27
2023-01-26T14:01:15.210Z,47.40
2023-01-26T14:03:41.925Z,49.27
2023-01-26T14:06:19.200Z,32.57
2023-01-26T14:08:54.822Z,44.00
2023-01-26T14:11:27.721Z,36.57
2023-01-26T14:13:58.063Z,35.57
2023-01-26T14:16:37.568Z,33.23
2023-01-26T14:19:16.233Z,32.73
2023-01-26T14:22:01.496Z,36.57
2023-01-26T14:24:39.573Z,43.50
2023-01-26T14:27:20.654Z,28.70
2023-01-26T14:29:47.792Z,30.40
2023-01-26T14:32:17.308Z,29.47
2023-01-26T14:34:55.804Z,25.93
2023-01-26T14:37:24.184Z,26.63
2023-01-26T14:40:29.536Z,22.23
2023-01-26T14:42:57.266Z,27.63
2023-01-26T14:45:31.587Z,28.73
2023-01-26T14:48:03.966Z,26.37
2023-01-26T14:50:32.242Z,33.27
2023-01-26T14:53:01.189Z,34.13
2023-01-26T14:55:31.079Z,31.67
2023-01-26T14:57:59.127Z,28.80
2023-01-26T15:00:32.574Z,38.27
2023-01-26T15:03:03.720Z,30.03
2023-01-26T15:05:39.143Z,42.53
2023-01-26T15:08:27.887Z,26.40
2023-01-26T15:11:19.934Z,39.00
2023-01-26T15:13:52.013Z,39.07
2023-01-26T15:16:20.891Z,31.03
2023-01-26T15:19:01.448Z,27.03
2023-01-26T15:21:43.366Z,41.40
2023-01-26T15:24:14.892Z,33.23
2023-01-26T15:26:42.221Z,31.60
2023-01-26T15:29:25.469Z,46.60
2023-01-26T15:31:57.036Z,40.73
2023-01-26T15:34:42.751Z,30.73
2023-01-26T15:37:30.794Z,24.50
2023-01-26T15:39:57.483Z,24.93
2023-01-26T15:42:28.894Z,38.17
2023-01-26T15:44:56.014Z,26.73
2023-01-26T15:47:23.453Z,28.30
2023-01-26T15:49:50.415Z,47.33
2023-01-26T15:52:20.433Z,33.90
2023-01-26T15:54:47.237Z,36.03
2023-01-26T15:57:14.169Z,33.60
2023-01-26T15:59:40.982Z,26.63
2023-01-26T16:02:19.502Z,33.30
2023-01-26T16:04:46.851Z,33.50
2023-01-26T16:07:16.284Z,31.57
2023-01-26T16:09:43.361Z,29.73
2023-01-26T16:12:30.476Z,38.70
2023-01-26T16:14:57.765Z,26.57
2023-01-26T16:17:24.624Z,17.73
2023-01-26T16:19:51.281Z,32.10
2023-01-26T16:22:18.557Z,26.33
2023-01-26T16:24:46.269Z,17.07
2023-01-26T16:27:12.937Z,27.53
2023-01-26T16:29:39.669Z,18.80
2023-01-26T16:32:27.954Z,23.50
2023-01-26T16:34:54.708Z,28.43
2023-01-26T16:37:21.314Z,25.03
2023-01-26T16:39:48.337Z,26.53
2023-01-26T16:42:20.014Z,27.27
2023-01-26T16:44:47.340Z,28.80
2023-01-26T16:47:14.062Z,25.50
2023-01-26T16:49:40.654Z,25.30
2023-01-26T16:52:09.506Z,32.33
2023-01-26T16:54:36.159Z,24.80
2023-01-26T16:57:03.027Z,28.87
2023-01-26T16:59:29.857Z,22.03
2023-01-26T17:01:57.417Z,21.83
2023-01-26T17:04:24.108Z,25.57
2023-01-26T17:06:50.786Z,21.90
2023-01-26T17:09:17.423Z,22.90
2023-01-26T17:11:44.078Z,28.10
2023-01-26T17:14:12.109Z,32.83
2023-01-26T17:16:39.469Z,25.73
2023-01-26T17:19:08.955Z,25.60
2023-01-26T17:21:36.324Z,20.47
2023-01-26T17:24:03.500Z,25.27
2023-01-26T17:26:30.196Z,33.33
2023-01-26T17:28:57.351Z,31.90
2023-01-26T17:31:25.128Z,42.67
2023-01-26T17:33:52.380Z,31.23
2023-01-26T17:36:19.487Z,36.27
2023-01-26T17:38:47.855Z,32.20
2023-01-26T17:41:15.481Z,33.43
2023-01-26T17:43:42.214Z,31.93
2023-01-26T17:46:17.007Z,37.97
2023-01-26T17:48:45.499Z,26.00
2023-01-26T17:51:18.266Z,41.13
2023-01-26T17:53:46.737Z,32.33
2023-01-26T17:56:16.566Z,27.60
2023-01-26T17:58:47.334Z,29.73
2023-01-26T18:01:14.485Z,27.10
2023-01-26T18:03:42.473Z,36.63
2023-01-26T18:06:10.987Z,35.60
2023-01-26T18:08:38.471Z,22.80
2023-01-26T18:11:08.101Z,26.27
2023-01-26T18:13:35.161Z,24.73
2023-01-26T18:16:02.097Z,22.17
2023-01-26T18:18:30.564Z,29.23
2023-01-26T18:20:57.861Z,22.53
2023-01-26T18:23:25.275Z,22.87
2023-01-26T18:25:52.658Z,28.33
2023-01-26T18:28:19.644Z,16.87
2023-01-26T18:30:46.595Z,24.00
2023-01-26T18:33:13.909Z,23.47
2023-01-26T18:35:40.889Z,19.27
2023-01-26T18:38:07.861Z,17.90
2023-01-26T18:40:36.114Z,20.20
2023-01-26T18:43:02.989Z,22.70
2023-01-26T18:45:30.600Z,23.17
2023-01-26T18:47:57.776Z,23.53
2023-01-26T18:50:24.646Z,24.73
2023-01-26T18:52:51.991Z,30.27
2023-01-26T18:55:18.896Z,28.73
2023-01-26T18:57:45.929Z,26.20
2023-01-26T19:00:14.251Z,20.37
2023-01-26T19:02:41.216Z,21.60
2023-01-26T19:05:08.699Z,21.87
2023-01-26T19:07:35.828Z,24.93
2023-01-26T19:10:06.453Z,22.67
2023-01-26T19:12:33.529Z,30.93
2023-01-26T19:15:00.481Z,24.67
2023-01-26T19:17:27.852Z,24.77
2023-01-26T19:19:55.086Z,14.23
2023-01-26T19:22:22.336Z,14.47
2023-01-26T19:24:49.307Z,15.30
2023-01-26T19:27:16.698Z,23.40
2023-01-26T19:29:43.601Z,13.90
2023-01-26T19:32:10.791Z,16.63
2023-01-26T19:34:37.866Z,18.00
2023-01-26T19:37:04.816Z,19.13
2023-01-26T19:39:31.881Z,10.80
2023-01-26T19:41:59.071Z,15.67
2023-01-26T19:44:26.171Z,10.27
2023-01-26T19:46:54.451Z,6.83
2023-01-26T19:49:21.613Z,28.63
2023-01-26T19:51:48.658Z,14.43
2023-01-26T19:54:16.523Z,13.00
2023-01-26T19:56:43.475Z,20.37
2023-01-26T19:59:12.828Z,17.13
2023-01-26T20:01:39.866Z,15.00
2023-01-26T20:04:09.453Z,13.33
2023-01-26T20:06:38.086Z,10.73
2023-01-26T20:09:06.838Z,10.23
2023-01-26T20:11:36.916Z,11.47
2023-01-26T20:14:08.900Z,11.57
2023-01-26T20:16:39.709Z,8.47
2023-01-26T20:19:07.042Z,8.37
2023-01-26T20:21:34.238Z,8.77
2023-01-26T20:24:05.526Z,14.60
2023-01-26T20:26:33.409Z,8.57
2023-01-26T20:29:00.912Z,9.93
2023-01-26T20:31:28.129Z,12.57
2023-01-26T20:33:55.663Z,13.53
2023-01-26T20:36:25.584Z,9.07
2023-01-26T20:38:52.660Z,14.57
2023-01-26T20:41:25.329Z,10.13
2023-01-26T20:44:00.797Z,9.50
2023-01-26T20:46:40.094Z,16.70
2023-01-26T20:49:10.766Z,12.10
2023-01-26T20:51:39.897Z,14.33
2023-01-26T20:54:08.150Z,26.27
2023-01-26T20:56:36.904Z,13.90
2023-01-26T20:59:05.150Z,7.83
2023-01-26T21:01:37.385Z,19.30
2023-01-26T21:04:06.454Z,8.80
2023-01-26T21:06:33.893Z,14.37
2023-01-26T21:09:01.164Z,6.27
2023-01-26T21:11:31.151Z,12.00
2023-01-26T21:14:01.109Z,13.17
2023-01-26T21:16:29.006Z,13.83
2023-01-26T21:18:56.302Z,14.37
2023-01-26T21:21:23.928Z,6.80
2023-01-26T21:23:51.360Z,12.87
2023-01-26T21:26:23.976Z,5.03
2023-01-26T21:28:59.726Z,7.80
2023-01-26T21:31:30.859Z,8.57
2023-01-26T21:33:58.615Z,7.07
2023-01-26T21:36:28.257Z,8.87
2023-01-26T21:38:57.785Z,14.17
2023-01-26T21:41:46.401Z,7.40
2023-01-26T21:44:24.203Z,11.53
2023-01-26T21:46:54.027Z,9.60
2023-01-26T21:49:21.952Z,9.83
2023-01-26T21:52:07.901Z,8.93
2023-01-26T21:54:35.742Z,10.30
2023-01-26T21:57:25.193Z,5.03
2023-01-26T21:59:52.726Z,8.40
2023-01-26T22:02:20.709Z,10.77
2023-01-26T22:04:47.612Z,12.73
2023-01-26T22:07:14.577Z,10.73
2023-01-26T22:09:41.963Z,11.80
2023-01-26T22:12:08.899Z,25.43
2023-01-26T22:14:35.780Z,6.07
2023-01-26T22:17:02.731Z,5.53
2023-01-26T22:19:29.615Z,11.60
2023-01-26T22:21:56.780Z,12.23
2023-01-26T22:24:23.755Z,9.70
2023-01-26T22:26:50.792Z,12.40
2023-01-26T22:29:17.768Z,6.30
2023-01-26T22:31:44.677Z,11.47
2023-01-26T22:34:12.060Z,5.73
2023-01-26T22:36:40.257Z,10.50
2023-01-26T22:39:07.964Z,5.60
2023-01-26T22:41:35.947Z,5.67
2023-01-26T22:44:03.001Z,4.80
2023-01-26T22:46:31.252Z,6.67
2023-01-26T22:48:59.610Z,13.53
2023-01-26T22:51:29.702Z,7.00
2023-01-26T22:53:57.846Z,14.77
2023-01-26T22:56:25.762Z,11.13
2023-01-26T22:58:58.521Z,9.30
2023-01-26T23:01:31.706Z,8.83
2023-01-26T23:04:00.589Z,18.90
2023-01-26T23:06:28.310Z,9.90
2023-01-26T23:08:56.044Z,9.77
2023-01-26T23:11:25.959Z,10.60
2023-01-26T23:13:54.470Z,10.20
2023-01-26T23:16:23.754Z,16.27
2023-01-26T23:18:52.353Z,6.83
2023-01-26T23:21:20.033Z,8.47
2023-01-26T23:23:46.985Z,7.43
2023-01-26T23:26:13.855Z,6.90
2023-01-26T23:28:43.061Z,9.60
2023-01-26T23:31:11.514Z,8.63
2023-01-26T23:33:39.421Z,6.27
2023-01-26T23:36:07.755Z,9.53
2023-01-26T23:38:34.751Z,6.77
2023-01-26T23:41:01.973Z,8.07
2023-01-26T23:43:29.637Z,9.60
2023-01-26T23:45:57.094Z,7.77
2023-01-26T23:48:25.908Z,8.73
2023-01-26T23:51:00.895Z,13.87
2023-01-26T23:53:29.108Z,13.57
2023-01-26T23:55:57.731Z,10.67
2023-01-26T23:58:24.913Z,12.33
